createdAt,value
2023-04-15T00:02:27.713Z,-0.16
2023-04-15T00:04:57.022Z,-0.23
2023-04-15T00:07:26.278Z,-0.23
2023-04-15T00:10:02.187Z,-0.26
2023-04-15T00:12:40.843Z,-0.29
2023-04-15T00:15:12.250Z,-0.29
2023-04-15T00:17:41.864Z,-0.47
2023-04-15T00:20:12.431Z,-0.39
2023-04-15T00:22:48.489Z,-0.55
2023-04-15T00:25:17.877Z,-0.50
2023-04-15T00:27:54.065Z,-0.57
2023-04-15T00:30:23.543Z,-0.63
2023-04-15T00:32:53.446Z,-0.69
2023-04-15T00:35:24.606Z,-0.59
2023-04-15T00:37:53.862Z,-0.59
2023-04-15T00:40:34.071Z,-0.63
2023-04-15T00:43:06.777Z,-0.69
2023-04-15T00:45:36.370Z,-0.72
2023-04-15T00:48:06.608Z,-0.69
2023-04-15T00:50:35.992Z,-0.75
2023-04-15T00:53:10.417Z,-0.83
2023-04-15T00:55:45.762Z,-0.87
2023-04-15T00:58:22.099Z,-0.91
2023-04-15T01:00:58.674Z,-0.88
2023-04-15T01:03:33.197Z,-0.93
2023-04-15T01:06:04.121Z,-0.91
2023-04-15T01:08:34.049Z,-1.27
2023-04-15T01:11:04.968Z,-1.17
2023-04-15T01:13:41.545Z,-0.99
2023-04-15T01:16:11.404Z,-0.97
2023-04-15T01:18:40.786Z,-1.02
2023-04-15T01:21:10.389Z,-1.16
2023-04-15T01:23:40.378Z,-1.14
2023-04-15T01:26:12.374Z,-1.14
2023-04-15T01:28:41.912Z,-1.16
2023-04-15T01:31:12.160Z,-1.17
2023-04-15T01:33:48.018Z,-1.20
2023-04-15T01:36:36.488Z,-1.19
2023-04-15T01:39:06.393Z,-1.21
2023-04-15T01:41:37.674Z,-1.19
2023-04-15T01:44:12.807Z,-1.25
2023-04-15T01:46:48.041Z,-1.33
2023-04-15T01:49:17.836Z,-1.42
2023-04-15T01:51:46.981Z,-1.52
2023-04-15T01:54:22.304Z,-1.40
2023-04-15T01:56:56.375Z,-1.43
2023-04-15T01:59:27.384Z,-1.42
2023-04-15T02:01:57.106Z,-1.47
2023-04-15T02:04:26.388Z,-1.69
2023-04-15T02:06:56.501Z,-1.49
2023-04-15T02:09:25.907Z,-1.48
2023-04-15T02:12:02.136Z,-1.43
2023-04-15T02:14:36.421Z,-1.46
2023-04-15T02:17:10.892Z,-1.47
2023-04-15T02:19:40.259Z,-1.52
2023-04-15T02:22:11.087Z,-1.78
2023-04-15T02:24:40.444Z,-1.51
2023-04-15T02:27:11.663Z,-1.51
2023-04-15T02:29:40.984Z,-1.52
2023-04-15T02:32:17.620Z,-1.46
2023-04-15T02:34:46.996Z,-1.46
2023-04-15T02:37:16.853Z,-1.39
2023-04-15T02:39:46.244Z,-1.70
2023-04-15T02:42:17.459Z,-1.47
2023-04-15T02:44:46.685Z,-1.45
2023-04-15T02:47:16.155Z,-1.46
2023-04-15T02:49:45.824Z,-1.46
2023-04-15T02:52:20.525Z,-1.42
2023-04-15T02:54:53.809Z,-1.43
2023-04-15T02:57:25.850Z,-1.45
2023-04-15T03:00:04.440Z,-1.60
2023-04-15T03:02:36.624Z,-1.49
2023-04-15T03:05:08.142Z,-1.47
2023-04-15T03:07:42.344Z,-1.51
2023-04-15T03:10:12.559Z,-1.47
2023-04-15T03:12:44.145Z,-1.42
2023-04-15T03:15:18.712Z,-1.42
2023-04-15T03:18:00.262Z,-1.36
2023-04-15T03:20:29.544Z,-1.33
2023-04-15T03:22:58.695Z,-1.30
2023-04-15T03:25:39.202Z,-1.28
2023-04-15T03:28:11.752Z,-1.26
2023-04-15T03:30:46.593Z,-1.33
2023-04-15T03:33:16.077Z,-1.34
2023-04-15T03:35:52.488Z,-1.20
2023-04-15T03:38:21.681Z,-1.38
2023-04-15T03:40:51.767Z,-1.06
2023-04-15T03:43:29.480Z,-0.98
2023-04-15T03:46:01.404Z,-1.00
2023-04-15T03:48:31.122Z,-1.05
2023-04-15T03:51:00.162Z,-0.92
2023-04-15T03:53:29.458Z,-0.87
2023-04-15T03:56:14.741Z,-0.87
2023-04-15T03:58:45.867Z,-0.84
2023-04-15T04:01:20.508Z,-0.79
2023-04-15T04:03:49.973Z,-0.67
2023-04-15T04:06:19.541Z,-0.62
2023-04-15T04:08:48.825Z,-0.63
2023-04-15T04:11:18.200Z,-0.43
2023-04-15T04:13:49.309Z,-0.34
2023-04-15T04:16:18.475Z,-0.26
2023-04-15T04:18:52.780Z,-0.13
2023-04-15T04:21:22.403Z,-0.17
2023-04-15T04:23:51.794Z,-0.05
2023-04-15T04:26:27.077Z,-0.08
2023-04-15T04:29:07.790Z,0.02
2023-04-15T04:31:36.943Z,0.08
2023-04-15T04:34:06.623Z,0.21
2023-04-15T04:36:40.903Z,0.29
2023-04-15T04:39:15.086Z,0.34
2023-04-15T04:41:44.330Z,0.48
2023-04-15T04:44:21.928Z,0.54
2023-04-15T04:46:51.084Z,0.69
2023-04-15T04:49:25.327Z,0.62
2023-04-15T04:51:54.757Z,0.61
2023-04-15T04:54:24.000Z,0.67
2023-04-15T04:56:53.275Z,0.77
2023-04-15T04:59:30.618Z,0.89
2023-04-15T05:01:59.964Z,1.07
2023-04-15T05:04:29.304Z,1.11
2023-04-15T05:06:59.050Z,1.10
2023-04-15T05:09:29.090Z,1.16
2023-04-15T05:11:58.178Z,1.16
2023-04-15T05:14:34.388Z,1.17
2023-04-15T05:17:03.715Z,1.20
2023-04-15T05:19:32.867Z,1.33
2023-04-15T05:24:37.187Z,1.54
2023-04-15T05:27:08.169Z,1.63
2023-04-15T05:29:39.386Z,1.72
2023-04-15T05:32:09.069Z,1.75
2023-04-15T05:34:38.289Z,2.02
2023-04-15T05:37:07.622Z,2.08
2023-04-15T05:39:36.767Z,2.04
2023-04-15T05:42:06.045Z,1.99
2023-04-15T05:44:48.495Z,2.10
2023-04-15T05:47:17.714Z,1.98
2023-04-15T05:49:46.896Z,2.15
2023-04-15T05:52:16.370Z,2.23
2023-04-15T05:54:45.474Z,2.34
2023-04-15T05:57:14.822Z,2.50
2023-04-15T05:59:52.186Z,2.60
2023-04-15T06:02:21.806Z,2.61
2023-04-15T06:04:51.116Z,2.81
2023-04-15T06:07:20.806Z,2.85
2023-04-15T06:09:49.998Z,2.84
2023-04-15T06:12:30.642Z,2.70
2023-04-15T06:15:02.088Z,2.79
2023-04-15T06:17:31.501Z,2.92
2023-04-15T06:20:00.783Z,2.85
2023-04-15T06:22:30.215Z,2.53
2023-04-15T06:24:59.654Z,2.64
2023-04-15T06:27:28.815Z,2.87
2023-04-15T06:30:05.224Z,2.66
2023-04-15T06:32:34.616Z,2.79
2023-04-15T06:35:09.303Z,2.52
2023-04-15T06:37:39.033Z,2.60
2023-04-15T06:40:10.367Z,2.52
2023-04-15T06:42:39.902Z,2.65
2023-04-15T06:45:17.551Z,2.92
2023-04-15T06:47:46.994Z,3.05
2023-04-15T06:50:16.491Z,3.08
2023-04-15T06:52:50.888Z,3.41
2023-04-15T06:55:33.669Z,3.74
2023-04-15T06:58:03.265Z,3.74
2023-04-15T07:00:35.325Z,3.41
2023-04-15T07:03:05.331Z,3.39
2023-04-15T07:05:34.608Z,3.35
2023-04-15T07:08:03.720Z,3.31
2023-04-15T07:10:43.051Z,3.22
2023-04-15T07:13:12.521Z,3.60
2023-04-15T07:15:43.850Z,3.44
2023-04-15T07:18:13.765Z,3.48
2023-04-15T07:20:43.327Z,3.33
2023-04-15T07:23:18.576Z,3.40
2023-04-15T07:25:47.934Z,3.33
2023-04-15T07:28:17.174Z,3.35
2023-04-15T07:30:48.757Z,3.28
2023-04-15T07:33:17.984Z,3.44
2023-04-15T07:35:54.822Z,3.37
2023-04-15T07:38:24.358Z,3.50
2023-04-15T07:40:54.635Z,3.38
2023-04-15T07:43:23.805Z,3.59
2023-04-15T07:46:00.282Z,3.53
2023-04-15T07:48:29.624Z,3.43
2023-04-15T07:51:01.016Z,3.49
2023-04-15T07:53:31.165Z,3.43
2023-04-15T07:56:00.577Z,3.52
2023-04-15T07:58:39.863Z,3.19
2023-04-15T08:01:11.354Z,3.30
2023-04-15T08:03:43.051Z,3.36
2023-04-15T08:06:20.556Z,3.61
2023-04-15T08:08:49.876Z,3.58
2023-04-15T08:11:19.438Z,3.52
2023-04-15T08:13:48.806Z,3.50
2023-04-15T08:16:25.571Z,3.52
2023-04-15T08:18:55.705Z,3.57
2023-04-15T08:21:25.646Z,3.92
2023-04-15T08:23:56.260Z,4.17
2023-04-15T08:26:30.930Z,4.38
2023-04-15T08:29:00.484Z,4.40
2023-04-15T08:31:37.746Z,4.24
2023-04-15T08:34:07.327Z,4.22
2023-04-15T08:36:36.562Z,4.36
2023-04-15T08:39:06.664Z,4.54
2023-04-15T08:41:41.731Z,4.77
2023-04-15T08:44:16.713Z,4.94
2023-04-15T08:46:53.644Z,4.98
2023-04-15T08:49:25.684Z,5.07
2023-04-15T08:51:56.317Z,5.02
2023-04-15T08:54:26.894Z,4.96
2023-04-15T08:57:02.006Z,4.95
2023-04-15T08:59:32.740Z,4.88
2023-04-15T09:02:10.100Z,4.79
2023-04-15T09:04:39.580Z,4.83
2023-04-15T09:07:08.961Z,4.84
2023-04-15T09:09:39.952Z,4.76
2023-04-15T09:12:10.706Z,5.06
2023-04-15T09:14:42.036Z,4.96
2023-04-15T09:17:13.686Z,5.03
2023-04-15T09:22:39.565Z,5.07
2023-04-15T09:25:28.521Z,5.08
2023-04-15T09:28:00.242Z,5.29
2023-04-15T09:30:36.487Z,5.43
2023-04-15T09:33:10.565Z,5.57
2023-04-15T09:35:46.477Z,5.55
2023-04-15T09:38:15.753Z,5.92
2023-04-15T09:40:45.267Z,6.00
2023-04-15T09:43:21.156Z,5.83
2023-04-15T09:45:53.304Z,5.86
2023-04-15T09:48:27.910Z,5.90
2023-04-15T09:51:03.070Z,5.94
2023-04-15T09:53:34.887Z,6.05
2023-04-15T09:56:04.268Z,6.16
2023-04-15T09:58:35.454Z,6.22
2023-04-15T10:01:08.823Z,6.41
2023-04-15T10:03:42.863Z,6.77
2023-04-15T10:06:12.929Z,7.08
2023-04-15T10:08:57.443Z,7.07
2023-04-15T10:11:27.493Z,6.98
2023-04-15T10:16:37.235Z,7.14
2023-04-15T10:19:11.242Z,7.23
2023-04-15T10:21:41.087Z,7.46
2023-04-15T10:24:11.072Z,7.70
2023-04-15T10:29:29.685Z,8.10
2023-04-15T10:32:18.499Z,8.03
2023-04-15T10:34:54.316Z,7.88
2023-04-15T10:37:24.995Z,7.99
2023-04-15T10:39:54.325Z,8.25
2023-04-15T10:42:24.395Z,8.18
2023-04-15T10:44:59.157Z,8.34
2023-04-15T10:47:41.947Z,8.48
2023-04-15T10:50:13.629Z,8.35
2023-04-15T10:52:43.772Z,8.03
2023-04-15T10:55:28.369Z,8.19
2023-04-15T10:58:02.726Z,8.26
2023-04-15T11:00:39.683Z,8.37
2023-04-15T11:03:14.051Z,8.43
2023-04-15T11:09:02.109Z,8.07
2023-04-15T11:12:08.449Z,8.28
2023-04-15T11:14:47.589Z,8.29
2023-04-15T11:17:16.959Z,7.96
2023-04-15T11:20:01.371Z,8.19
2023-04-15T11:22:33.198Z,8.12
2023-04-15T11:25:23.890Z,7.97
2023-04-15T11:27:54.382Z,8.10
2023-04-15T11:30:25.190Z,8.07
2023-04-15T11:33:02.489Z,8.08
2023-04-15T11:35:36.678Z,8.20
2023-04-15T11:38:11.594Z,8.27
2023-04-15T11:40:47.192Z,8.18
2023-04-15T11:43:23.070Z,8.42
2023-04-15T11:45:54.577Z,8.43
2023-04-15T11:48:30.641Z,8.45
2023-04-15T11:51:02.884Z,8.46
2023-04-15T11:53:50.764Z,8.56
2023-04-15T11:56:24.218Z,8.66
2023-04-15T11:59:01.579Z,8.42
2023-04-15T12:01:36.037Z,8.31
2023-04-15T12:04:13.881Z,8.11
2023-04-15T12:06:43.540Z,8.25
2023-04-15T12:09:21.589Z,8.02
2023-04-15T12:11:52.626Z,8.34
2023-04-15T12:14:44.611Z,8.47
2023-04-15T12:17:15.896Z,8.47
2023-04-15T12:22:25.226Z,8.53
2023-04-15T12:25:08.712Z,8.29
2023-04-15T12:27:38.145Z,8.48
2023-04-15T12:30:21.594Z,8.60
2023-04-15T12:32:51.054Z,8.76
2023-04-15T12:35:35.404Z,8.88
2023-04-15T12:38:04.973Z,8.77
2023-04-15T12:40:37.766Z,8.59
2023-04-15T12:43:07.400Z,8.47
2023-04-15T12:52:16.554Z,8.17
2023-04-15T12:54:47.638Z,8.04
2023-04-15T12:57:22.408Z,8.22
2023-04-15T12:59:52.531Z,8.17
2023-04-15T13:02:25.301Z,8.32
2023-04-15T13:05:10.135Z,8.28
2023-04-15T13:07:41.564Z,8.35
2023-04-15T13:10:12.033Z,8.40
2023-04-15T13:12:41.430Z,8.42
2023-04-15T13:15:13.136Z,8.33
2023-04-15T13:17:47.319Z,8.34
2023-04-15T13:20:27.108Z,8.29
2023-04-15T13:22:58.432Z,8.25
2023-04-15T13:25:32.831Z,8.17
2023-04-15T13:28:15.131Z,7.99
2023-04-15T13:30:45.550Z,8.15
2023-04-15T13:33:14.891Z,8.03
2023-04-15T13:35:48.817Z,8.08
2023-04-15T13:38:20.292Z,7.94
2023-04-15T13:41:13.242Z,8.18
2023-04-15T13:43:42.584Z,8.22
2023-04-15T13:46:11.938Z,8.25
2023-04-15T13:48:43.208Z,8.21
2023-04-15T13:51:27.600Z,8.29
2023-04-15T13:54:00.939Z,8.33
2023-04-15T13:56:32.116Z,8.27
2023-04-15T13:59:02.969Z,8.23
2023-04-15T14:01:32.341Z,8.19
2023-04-15T14:04:11.853Z,8.21
2023-04-15T14:06:41.415Z,8.20
2023-04-15T14:11:53.026Z,8.05
2023-04-15T14:14:22.689Z,8.17
2023-04-15T14:16:52.469Z,8.21
2023-04-15T14:19:21.936Z,8.16
2023-04-15T14:22:03.209Z,8.18
2023-04-15T14:24:34.633Z,8.07
2023-04-15T14:27:04.047Z,8.21
2023-04-15T14:29:33.324Z,8.23
2023-04-15T14:32:08.575Z,8.19
2023-04-15T14:34:42.409Z,8.19
2023-04-15T14:37:26.917Z,8.18
2023-04-15T14:39:58.310Z,8.14
2023-04-15T14:42:32.932Z,8.25
2023-04-15T14:45:08.359Z,8.24
2023-04-15T14:47:37.974Z,8.21
2023-04-15T14:50:08.370Z,8.26
2023-04-15T14:52:47.978Z,8.29
2023-04-15T14:55:19.272Z,8.37
2023-04-15T14:57:53.969Z,8.46
2023-04-15T15:00:23.191Z,8.41
2023-04-15T15:02:52.718Z,8.44
2023-04-15T15:05:22.273Z,8.39
2023-04-15T15:07:51.925Z,8.36
2023-04-15T15:10:48.003Z,8.22
2023-04-15T15:13:14.087Z,8.23
2023-04-15T15:15:44.850Z,7.80
2023-04-15T15:18:25.135Z,7.80
2023-04-15T15:20:59.822Z,7.99
2023-04-15T15:23:29.746Z,7.79
2023-04-15T15:28:36.484Z,7.83
2023-04-15T15:31:06.342Z,7.87
2023-04-15T15:33:36.243Z,7.83
2023-04-15T15:36:06.249Z,7.80
2023-04-15T15:38:48.620Z,7.75
2023-04-15T15:41:30.354Z,7.72
2023-04-15T15:43:59.794Z,7.68
2023-04-15T15:46:36.114Z,7.68
2023-04-15T15:49:06.016Z,7.60
2023-04-15T15:51:35.513Z,7.51
2023-04-15T15:54:09.933Z,7.49
2023-04-15T15:56:41.796Z,7.39
2023-04-15T15:59:12.854Z,7.46
2023-04-15T16:01:42.220Z,7.37
2023-04-15T16:04:12.187Z,7.31
2023-04-15T16:06:46.988Z,7.03
2023-04-15T16:09:16.495Z,7.05
2023-04-15T16:11:48.008Z,6.97
2023-04-15T16:14:17.477Z,6.98
2023-04-15T16:16:49.872Z,6.88
2023-04-15T16:19:19.690Z,6.91
2023-04-15T16:22:02.323Z,6.27
2023-04-15T16:24:33.802Z,6.67
2023-04-15T16:27:19.513Z,6.65
2023-04-15T16:29:48.985Z,6.63
2023-04-15T16:32:18.386Z,6.55
2023-04-15T16:34:47.814Z,6.55
2023-04-15T16:37:17.151Z,6.49
2023-04-15T16:42:54.352Z,6.34
2023-04-15T16:45:23.827Z,6.25
2023-04-15T16:47:53.082Z,6.25
2023-04-15T16:50:27.616Z,6.24
2023-04-15T16:52:56.869Z,6.17
2023-04-15T16:55:26.712Z,6.15
2023-04-15T16:58:02.401Z,6.04
2023-04-15T17:00:35.748Z,5.95
2023-04-15T17:03:06.564Z,5.63
2023-04-15T17:05:36.463Z,5.78
2023-04-15T17:08:06.385Z,5.82
2023-04-15T17:10:54.914Z,5.86
2023-04-15T17:13:31.467Z,5.73
2023-04-15T17:16:02.069Z,5.84
2023-04-15T17:18:41.354Z,5.69
2023-04-15T17:21:26.025Z,5.74
2023-04-15T17:24:00.478Z,5.74
2023-04-15T17:26:41.299Z,5.70
2023-04-15T17:29:14.452Z,5.73
2023-04-15T17:35:19.643Z,5.68
2023-04-15T17:38:26.876Z,5.50
2023-04-15T17:41:17.026Z,5.55
2023-04-15T17:44:11.584Z,5.55
2023-04-15T17:47:02.750Z,5.62
2023-04-15T17:50:02.064Z,5.59
2023-04-15T17:52:51.469Z,5.59
2023-04-15T17:55:47.944Z,5.42
2023-04-15T17:58:38.837Z,5.59
2023-04-15T18:01:28.410Z,5.55
2023-04-15T18:04:20.018Z,5.54
2023-04-15T18:07:09.685Z,5.52
2023-04-15T18:09:59.296Z,5.43
2023-04-15T18:12:53.714Z,5.36
2023-04-15T18:15:44.121Z,5.43
2023-04-15T18:18:39.828Z,5.40
2023-04-15T18:21:16.096Z,5.31
2023-04-15T18:23:50.697Z,5.25
2023-04-15T18:26:21.249Z,5.23
2023-04-15T18:28:50.642Z,5.15
2023-04-15T18:31:20.016Z,5.11
2023-04-15T18:33:50.362Z,5.04
2023-04-15T18:36:21.860Z,5.02
2023-04-15T18:38:57.506Z,4.95
2023-04-15T18:41:27.354Z,4.86
2023-04-15T18:44:07.782Z,4.82
2023-04-15T18:46:50.196Z,4.78
2023-04-15T18:49:27.101Z,4.65
2023-04-15T18:52:13.113Z,4.56
2023-04-15T18:54:53.580Z,4.46
2023-04-15T18:57:23.636Z,4.40
2023-04-15T19:00:02.522Z,4.39
2023-04-15T19:02:35.717Z,4.40
2023-04-15T19:05:06.595Z,4.40
2023-04-15T19:07:37.952Z,4.48
2023-04-15T19:10:22.930Z,4.48
2023-04-15T19:12:52.355Z,4.53
2023-04-15T19:15:21.847Z,4.41
2023-04-15T19:17:51.264Z,4.35
2023-04-15T19:20:20.564Z,4.26
2023-04-15T19:25:33.157Z,4.16
2023-04-15T19:28:07.493Z,4.20
2023-04-15T19:30:37.065Z,3.98
2023-04-15T19:33:07.037Z,4.12
2023-04-15T19:35:42.719Z,4.13
2023-04-15T19:38:14.354Z,3.95
2023-04-15T19:40:49.266Z,4.13
2023-04-15T19:43:31.501Z,4.10
2023-04-15T19:46:01.306Z,3.91
2023-04-15T19:48:30.716Z,4.00
2023-04-15T19:51:15.005Z,3.96
2023-04-15T19:53:53.712Z,3.84
2023-04-15T19:56:23.516Z,3.82
2023-04-15T19:58:53.572Z,3.70
2023-04-15T20:01:29.890Z,3.80
2023-04-15T20:04:18.306Z,3.65
2023-04-15T20:06:52.899Z,3.85
2023-04-15T20:09:24.271Z,3.65
2023-04-15T20:12:09.929Z,3.78
2023-04-15T20:14:45.561Z,3.77
2023-04-15T20:17:16.672Z,3.69
2023-04-15T20:19:46.217Z,3.73
2023-04-15T20:22:15.627Z,3.69
2023-04-15T20:24:47.231Z,3.62
2023-04-15T20:27:16.837Z,3.55
2023-04-15T20:29:46.168Z,3.57
2023-04-15T20:32:15.733Z,3.56
2023-04-15T20:34:45.042Z,3.34
2023-04-15T20:37:14.682Z,3.58
2023-04-15T20:39:43.950Z,3.60
2023-04-15T20:42:15.221Z,3.42
2023-04-15T20:44:53.539Z,3.56
2023-04-15T20:47:23.074Z,3.45
2023-04-15T20:49:52.550Z,3.61
2023-04-15T20:52:21.829Z,3.14
2023-04-15T20:54:51.070Z,3.29
2023-04-15T20:57:24.274Z,3.42
2023-04-15T20:59:54.809Z,3.58
2023-04-15T21:02:25.349Z,3.71
2023-04-15T21:04:55.369Z,3.71
2023-04-15T21:07:29.692Z,3.53
2023-04-15T21:09:59.368Z,3.60
2023-04-15T21:12:31.155Z,3.47
2023-04-15T21:15:01.381Z,3.07
2023-04-15T21:17:30.798Z,3.40
2023-04-15T21:20:11.348Z,3.38
2023-04-15T21:22:40.922Z,3.12
2023-04-15T21:25:11.494Z,3.33
2023-04-15T21:27:42.947Z,3.31
2023-04-15T21:30:14.182Z,3.24
2023-04-15T21:32:43.772Z,3.20
2023-04-15T21:35:13.103Z,3.22
2023-04-15T21:37:43.208Z,3.19
2023-04-15T21:40:14.470Z,3.24
2023-04-15T21:42:57.344Z,3.29
2023-04-15T21:45:27.164Z,3.25
2023-04-15T21:47:56.818Z,3.25
2023-04-15T21:50:41.938Z,3.18
2023-04-15T21:53:11.523Z,3.25
2023-04-15T21:55:46.984Z,3.23
2023-04-15T21:58:18.298Z,3.16
2023-04-15T22:00:47.723Z,3.03
2023-04-15T22:03:17.089Z,2.81
2023-04-15T22:05:47.793Z,2.74
2023-04-15T22:08:17.099Z,2.56
2023-04-15T22:10:46.200Z,2.48
2023-04-15T22:13:17.430Z,2.47
2023-04-15T22:15:46.772Z,2.49
2023-04-15T22:18:22.307Z,2.46
2023-04-15T22:20:51.684Z,2.33
2023-04-15T22:23:20.928Z,2.26
2023-04-15T22:26:00.367Z,2.15
2023-04-15T22:28:31.661Z,2.06
2023-04-15T22:31:01.894Z,1.91
2023-04-15T22:33:31.164Z,1.91
2023-04-15T22:36:00.430Z,1.75
2023-04-15T22:38:30.143Z,1.90
2023-04-15T22:40:59.901Z,2.05
2023-04-15T22:43:36.155Z,2.12
2023-04-15T22:46:10.734Z,2.16
2023-04-15T22:48:40.054Z,2.10
2023-04-15T22:51:10.531Z,2.03
2023-04-15T22:53:49.938Z,2.20
2023-04-15T22:56:21.340Z,2.21
2023-04-15T22:59:00.923Z,2.24
2023-04-15T23:01:31.637Z,2.21
2023-04-15T23:04:08.288Z,2.13
2023-04-15T23:06:50.814Z,2.10
2023-04-15T23:09:20.638Z,2.07
2023-04-15T23:11:50.005Z,2.01
2023-04-15T23:17:01.033Z,1.94
2023-04-15T23:19:30.571Z,1.82
2023-04-15T23:22:06.759Z,1.81
2023-04-15T23:24:36.038Z,1.80
2023-04-15T23:27:05.811Z,1.71
2023-04-15T23:29:37.106Z,1.68
2023-04-15T23:32:17.324Z,1.64
2023-04-15T23:34:51.726Z,1.53
2023-04-15T23:37:21.226Z,1.45
2023-04-15T23:39:55.632Z,1.49
2023-04-15T23:42:25.655Z,1.37
2023-04-15T23:44:56.907Z,1.37
2023-04-15T23:47:34.797Z,1.33
2023-04-15T23:50:04.298Z,1.25
2023-04-15T23:52:33.677Z,1.18
2023-04-15T23:55:02.895Z,1.17
